sensor_id;sensor_type;location;lat;lon;timestamp;P1;durP1;ratioP1;P2;durP2;ratioP2
34242;SDS011;20504;43.214;27.920;2022-12-29T00:01:53;26.97;;;13.80;;
34242;SDS011;20504;43.214;27.920;2022-12-29T00:04:18;25.60;;;12.27;;
34242;SDS011;20504;43.214;27.920;2022-12-29T00:06:44;35.53;;;17.23;;
34242;SDS011;20504;43.214;27.920;2022-12-29T00:09:10;23.43;;;14.10;;
34242;SDS011;20504;43.214;27.920;2022-12-29T00:11:37;25.65;;;13.48;;
34242;SDS011;20504;43.214;27.920;2022-12-29T00:14:03;21.13;;;9.60;;
34242;SDS011;20504;43.214;27.920;2022-12-29T00:16:47;19.60;;;11.48;;
34242;SDS011;20504;43.214;27.920;2022-12-29T00:19:12;20.63;;;11.70;;
34242;SDS011;20504;43.214;27.920;2022-12-29T00:21:57;18.92;;;10.65;;
34242;SDS011;20504;43.214;27.920;2022-12-29T00:24:42;23.83;;;11.65;;
34242;SDS011;20504;43.214;27.920;2022-12-29T00:27:27;20.88;;;11.73;;
34242;SDS011;20504;43.214;27.920;2022-12-29T00:30:13;20.92;;;10.63;;
34242;SDS011;20504;43.214;27.920;2022-12-29T00:33:12;21.15;;;11.13;;
34242;SDS011;20504;43.214;27.920;2022-12-29T00:35:58;18.05;;;11.13;;
34242;SDS011;20504;43.214;27.920;2022-12-29T00:38:29;19.38;;;11.30;;
34242;SDS011;20504;43.214;27.920;2022-12-29T00:41:16;22.73;;;10.63;;
34242;SDS011;20504;43.214;27.920;2022-12-29T00:44:00;19.85;;;10.45;;
34242;SDS011;20504;43.214;27.920;2022-12-29T00:46:39;17.17;;;9.80;;
34242;SDS011;20504;43.214;27.920;2022-12-29T00:49:06;24.10;;;9.93;;
34242;SDS011;20504;43.214;27.920;2022-12-29T00:51:52;20.52;;;9.90;;
34242;SDS011;20504;43.214;27.920;2022-12-29T00:54:18;15.70;;;9.70;;
34242;SDS011;20504;43.214;27.920;2022-12-29T00:56:48;20.20;;;9.83;;
34242;SDS011;20504;43.214;27.920;2022-12-29T00:59:14;21.63;;;10.43;;
34242;SDS011;20504;43.214;27.920;2022-12-29T01:01:40;22.10;;;10.15;;
34242;SDS011;20504;43.214;27.920;2022-12-29T01:04:07;17.48;;;9.30;;
34242;SDS011;20504;43.214;27.920;2022-12-29T01:06:33;12.52;;;7.32;;
34242;SDS011;20504;43.214;27.920;2022-12-29T01:09:00;21.30;;;9.60;;
34242;SDS011;20504;43.214;27.920;2022-12-29T01:11:44;17.27;;;9.10;;
34242;SDS011;20504;43.214;27.920;2022-12-29T01:14:09;15.93;;;8.90;;
34242;SDS011;20504;43.214;27.920;2022-12-29T01:16:35;20.30;;;9.20;;
34242;SDS011;20504;43.214;27.920;2022-12-29T01:19:01;18.23;;;9.38;;
34242;SDS011;20504;43.214;27.920;2022-12-29T01:21:27;17.57;;;9.47;;
34242;SDS011;20504;43.214;27.920;2022-12-29T01:23:52;16.20;;;9.43;;
34242;SDS011;20504;43.214;27.920;2022-12-29T01:26:18;21.90;;;9.43;;
34242;SDS011;20504;43.214;27.920;2022-12-29T01:28:44;19.17;;;9.83;;
34242;SDS011;20504;43.214;27.920;2022-12-29T01:31:10;23.27;;;9.57;;
34242;SDS011;20504;43.214;27.920;2022-12-29T01:33:37;15.45;;;8.52;;
34242;SDS011;20504;43.214;27.920;2022-12-29T01:36:03;16.77;;;9.38;;
34242;SDS011;20504;43.214;27.920;2022-12-29T01:38:31;15.90;;;9.27;;
34242;SDS011;20504;43.214;27.920;2022-12-29T01:43:46;17.77;;;9.02;;
34242;SDS011;20504;43.214;27.920;2022-12-29T01:46:28;20.48;;;8.98;;
34242;SDS011;20504;43.214;27.920;2022-12-29T01:51:33;15.18;;;8.90;;
34242;SDS011;20504;43.214;27.920;2022-12-29T01:54:09;16.98;;;8.93;;
34242;SDS011;20504;43.214;27.920;2022-12-29T01:56:44;12.87;;;6.77;;
34242;SDS011;20504;43.214;27.920;2022-12-29T02:01:42;16.65;;;8.93;;
34242;SDS011;20504;43.214;27.920;2022-12-29T02:04:09;10.10;;;6.17;;
34242;SDS011;20504;43.214;27.920;2022-12-29T02:06:53;13.95;;;8.27;;
34242;SDS011;20504;43.214;27.920;2022-12-29T02:09:24;11.82;;;6.70;;
34242;SDS011;20504;43.214;27.920;2022-12-29T02:11:50;20.50;;;8.00;;
34242;SDS011;20504;43.214;27.920;2022-12-29T02:14:16;10.32;;;6.65;;
34242;SDS011;20504;43.214;27.920;2022-12-29T02:19:59;15.65;;;7.65;;
34242;SDS011;20504;43.214;27.920;2022-12-29T02:39:31;20.02;;;7.25;;
34242;SDS011;20504;43.214;27.920;2022-12-29T02:42:03;12.45;;;7.18;;
34242;SDS011;20504;43.214;27.920;2022-12-29T02:45:00;19.10;;;7.72;;
34242;SDS011;20504;43.214;27.920;2022-12-29T02:47:40;14.80;;;7.93;;
34242;SDS011;20504;43.214;27.920;2022-12-29T02:50:15;17.35;;;8.10;;
34242;SDS011;20504;43.214;27.920;2022-12-29T02:53:00;14.98;;;8.20;;
34242;SDS011;20504;43.214;27.920;2022-12-29T02:55:29;12.90;;;7.88;;
34242;SDS011;20504;43.214;27.920;2022-12-29T03:00:48;15.75;;;7.45;;
34242;SDS011;20504;43.214;27.920;2022-12-29T03:03:45;13.70;;;6.80;;
34242;SDS011;20504;43.214;27.920;2022-12-29T03:06:38;19.30;;;7.18;;
34242;SDS011;20504;43.214;27.920;2022-12-29T03:09:14;13.27;;;6.80;;
34242;SDS011;20504;43.214;27.920;2022-12-29T03:20:38;11.98;;;6.95;;
34242;SDS011;20504;43.214;27.920;2022-12-29T03:23:08;13.23;;;7.22;;
34242;SDS011;20504;43.214;27.920;2022-12-29T03:25:36;13.68;;;6.68;;
34242;SDS011;20504;43.214;27.920;2022-12-29T03:28:09;15.82;;;7.47;;
34242;SDS011;20504;43.214;27.920;2022-12-29T03:30:39;12.60;;;6.28;;
34242;SDS011;20504;43.214;27.920;2022-12-29T03:33:07;9.68;;;6.05;;
34242;SDS011;20504;43.214;27.920;2022-12-29T03:35:37;9.60;;;6.03;;
34242;SDS011;20504;43.214;27.920;2022-12-29T03:38:14;11.20;;;5.13;;
34242;SDS011;20504;43.214;27.920;2022-12-29T03:40:45;12.80;;;5.70;;
34242;SDS011;20504;43.214;27.920;2022-12-29T03:43:14;9.63;;;5.78;;
34242;SDS011;20504;43.214;27.920;2022-12-29T03:45:40;13.07;;;6.10;;
34242;SDS011;20504;43.214;27.920;2022-12-29T03:48:06;9.17;;;5.63;;
34242;SDS011;20504;43.214;27.920;2022-12-29T03:50:32;16.33;;;8.37;;
34242;SDS011;20504;43.214;27.920;2022-12-29T03:52:57;12.93;;;5.70;;
34242;SDS011;20504;43.214;27.920;2022-12-29T03:55:23;20.93;;;8.93;;
34242;SDS011;20504;43.214;27.920;2022-12-29T03:57:51;23.83;;;9.87;;
34242;SDS011;20504;43.214;27.920;2022-12-29T04:00:17;28.65;;;11.43;;
34242;SDS011;20504;43.214;27.920;2022-12-29T04:02:44;21.02;;;10.70;;
34242;SDS011;20504;43.214;27.920;2022-12-29T04:05:10;20.93;;;11.27;;
34242;SDS011;20504;43.214;27.920;2022-12-29T04:07:35;29.97;;;15.17;;
34242;SDS011;20504;43.214;27.920;2022-12-29T04:10:06;36.53;;;16.08;;
34242;SDS011;20504;43.214;27.920;2022-12-29T04:12:38;30.48;;;17.63;;
34242;SDS011;20504;43.214;27.920;2022-12-29T04:15:03;40.93;;;18.27;;
34242;SDS011;20504;43.214;27.920;2022-12-29T04:17:29;41.42;;;19.98;;
34242;SDS011;20504;43.214;27.920;2022-12-29T04:19:55;41.70;;;20.07;;
34242;SDS011;20504;43.214;27.920;2022-12-29T04:22:40;37.28;;;20.13;;
34242;SDS011;20504;43.214;27.920;2022-12-29T04:25:06;38.90;;;19.23;;
34242;SDS011;20504;43.214;27.920;2022-12-29T04:27:31;41.22;;;20.98;;
34242;SDS011;20504;43.214;27.920;2022-12-29T04:29:57;31.23;;;16.30;;
34242;SDS011;20504;43.214;27.920;2022-12-29T04:32:22;29.20;;;15.47;;
34242;SDS011;20504;43.214;27.920;2022-12-29T04:34:48;35.63;;;15.77;;
34242;SDS011;20504;43.214;27.920;2022-12-29T04:37:13;25.37;;;11.57;;
34242;SDS011;20504;43.214;27.920;2022-12-29T04:39:39;30.40;;;15.17;;
34242;SDS011;20504;43.214;27.920;2022-12-29T04:42:04;33.57;;;15.27;;
34242;SDS011;20504;43.214;27.920;2022-12-29T04:44:30;18.20;;;9.40;;
34242;SDS011;20504;43.214;27.920;2022-12-29T04:46:55;19.60;;;8.10;;
34242;SDS011;20504;43.214;27.920;2022-12-29T04:49:21;20.27;;;9.67;;
34242;SDS011;20504;43.214;27.920;2022-12-29T04:51:46;26.37;;;10.07;;
34242;SDS011;20504;43.214;27.920;2022-12-29T04:54:11;27.90;;;10.53;;
34242;SDS011;20504;43.214;27.920;2022-12-29T04:56:37;18.70;;;9.97;;
34242;SDS011;20504;43.214;27.920;2022-12-29T04:59:02;13.90;;;8.07;;
34242;SDS011;20504;43.214;27.920;2022-12-29T05:01:28;20.33;;;10.70;;
34242;SDS011;20504;43.214;27.920;2022-12-29T05:03:53;26.17;;;11.67;;
34242;SDS011;20504;43.214;27.920;2022-12-29T05:06:19;27.30;;;12.33;;
34242;SDS011;20504;43.214;27.920;2022-12-29T05:08:44;44.63;;;15.50;;
34242;SDS011;20504;43.214;27.920;2022-12-29T05:11:10;51.40;;;17.57;;
34242;SDS011;20504;43.214;27.920;2022-12-29T05:13:35;61.37;;;22.90;;
34242;SDS011;20504;43.214;27.920;2022-12-29T05:16:01;55.50;;;20.57;;
34242;SDS011;20504;43.214;27.920;2022-12-29T05:18:26;41.57;;;17.50;;
34242;SDS011;20504;43.214;27.920;2022-12-29T05:20:52;47.33;;;18.33;;
34242;SDS011;20504;43.214;27.920;2022-12-29T05:23:17;37.93;;;14.70;;
34242;SDS011;20504;43.214;27.920;2022-12-29T05:25:43;33.07;;;14.10;;
34242;SDS011;20504;43.214;27.920;2022-12-29T05:28:10;38.72;;;14.50;;
34242;SDS011;20504;43.214;27.920;2022-12-29T05:30:35;29.57;;;14.40;;
34242;SDS011;20504;43.214;27.920;2022-12-29T05:33:01;29.60;;;14.10;;
34242;SDS011;20504;43.214;27.920;2022-12-29T05:35:26;31.67;;;14.63;;
34242;SDS011;20504;43.214;27.920;2022-12-29T05:37:52;29.00;;;14.80;;
34242;SDS011;20504;43.214;27.920;2022-12-29T05:40:17;24.73;;;13.97;;
34242;SDS011;20504;43.214;27.920;2022-12-29T05:42:43;28.03;;;15.30;;
34242;SDS011;20504;43.214;27.920;2022-12-29T05:45:08;17.33;;;11.03;;
34242;SDS011;20504;43.214;27.920;2022-12-29T05:47:34;31.23;;;14.30;;
34242;SDS011;20504;43.214;27.920;2022-12-29T05:49:59;32.57;;;14.57;;
34242;SDS011;20504;43.214;27.920;2022-12-29T05:55:10;31.02;;;14.77;;
34242;SDS011;20504;43.214;27.920;2022-12-29T05:57:35;33.47;;;14.40;;
34242;SDS011;20504;43.214;27.920;2022-12-29T06:00:02;38.33;;;15.97;;
34242;SDS011;20504;43.214;27.920;2022-12-29T06:02:28;34.60;;;16.38;;
34242;SDS011;20504;43.214;27.920;2022-12-29T06:04:54;33.73;;;16.03;;
34242;SDS011;20504;43.214;27.920;2022-12-29T06:07:19;30.77;;;14.03;;
34242;SDS011;20504;43.214;27.920;2022-12-29T06:09:45;39.47;;;15.80;;
34242;SDS011;20504;43.214;27.920;2022-12-29T06:12:10;36.17;;;14.23;;
34242;SDS011;20504;43.214;27.920;2022-12-29T06:14:36;29.77;;;14.67;;
34242;SDS011;20504;43.214;27.920;2022-12-29T06:17:01;30.70;;;14.70;;
34242;SDS011;20504;43.214;27.920;2022-12-29T06:19:26;36.23;;;15.73;;
34242;SDS011;20504;43.214;27.920;2022-12-29T06:21:52;38.37;;;15.00;;
34242;SDS011;20504;43.214;27.920;2022-12-29T06:24:18;35.90;;;15.63;;
34242;SDS011;20504;43.214;27.920;2022-12-29T06:26:44;33.47;;;15.53;;
34242;SDS011;20504;43.214;27.920;2022-12-29T06:29:10;30.83;;;14.93;;
34242;SDS011;20504;43.214;27.920;2022-12-29T06:31:35;36.80;;;16.03;;
34242;SDS011;20504;43.214;27.920;2022-12-29T06:34:01;28.97;;;14.50;;
34242;SDS011;20504;43.214;27.920;2022-12-29T06:36:27;38.17;;;15.63;;
34242;SDS011;20504;43.214;27.920;2022-12-29T06:38:53;30.43;;;14.27;;
34242;SDS011;20504;43.214;27.920;2022-12-29T06:41:19;33.67;;;14.75;;
34242;SDS011;20504;43.214;27.920;2022-12-29T06:43:45;31.15;;;14.80;;
34242;SDS011;20504;43.214;27.920;2022-12-29T06:46:11;43.77;;;15.67;;
34242;SDS011;20504;43.214;27.920;2022-12-29T06:48:36;30.37;;;14.57;;
34242;SDS011;20504;43.214;27.920;2022-12-29T06:51:02;33.90;;;13.97;;
34242;SDS011;20504;43.214;27.920;2022-12-29T06:53:28;39.07;;;15.17;;
34242;SDS011;20504;43.214;27.920;2022-12-29T06:55:53;27.67;;;13.43;;
34242;SDS011;20504;43.214;27.920;2022-12-29T06:58:19;37.30;;;14.67;;
34242;SDS011;20504;43.214;27.920;2022-12-29T07:00:44;39.00;;;16.30;;
34242;SDS011;20504;43.214;27.920;2022-12-29T07:03:10;36.97;;;13.67;;
34242;SDS011;20504;43.214;27.920;2022-12-29T07:05:35;27.70;;;12.70;;
34242;SDS011;20504;43.214;27.920;2022-12-29T07:08:01;29.73;;;11.90;;
34242;SDS011;20504;43.214;27.920;2022-12-29T07:10:26;24.37;;;10.60;;
34242;SDS011;20504;43.214;27.920;2022-12-29T07:12:52;21.37;;;7.43;;
34242;SDS011;20504;43.214;27.920;2022-12-29T07:17:44;15.05;;;6.97;;
34242;SDS011;20504;43.214;27.920;2022-12-29T07:20:09;17.67;;;7.10;;
34242;SDS011;20504;43.214;27.920;2022-12-29T07:22:35;16.73;;;6.90;;
34242;SDS011;20504;43.214;27.920;2022-12-29T07:25:01;23.98;;;7.72;;
34242;SDS011;20504;43.214;27.920;2022-12-29T07:29:53;23.98;;;7.13;;
34242;SDS011;20504;43.214;27.920;2022-12-29T07:32:19;14.83;;;7.00;;
34242;SDS011;20504;43.214;27.920;2022-12-29T07:34:44;19.27;;;6.77;;
34242;SDS011;20504;43.214;27.920;2022-12-29T07:37:12;16.58;;;7.07;;
34242;SDS011;20504;43.214;27.920;2022-12-29T07:42:04;13.98;;;6.28;;
34242;SDS011;20504;43.214;27.920;2022-12-29T07:44:29;12.50;;;6.67;;
34242;SDS011;20504;43.214;27.920;2022-12-29T07:46:55;16.57;;;6.77;;
34242;SDS011;20504;43.214;27.920;2022-12-29T07:49:20;14.37;;;6.07;;
34242;SDS011;20504;43.214;27.920;2022-12-29T07:51:46;19.30;;;8.63;;
34242;SDS011;20504;43.214;27.920;2022-12-29T07:54:12;14.10;;;6.13;;
34242;SDS011;20504;43.214;27.920;2022-12-29T07:56:37;17.63;;;6.10;;
34242;SDS011;20504;43.214;27.920;2022-12-29T07:59:03;13.57;;;5.90;;
34242;SDS011;20504;43.214;27.920;2022-12-29T08:01:28;11.40;;;5.83;;
34242;SDS011;20504;43.214;27.920;2022-12-29T08:03:54;12.50;;;6.80;;
34242;SDS011;20504;43.214;27.920;2022-12-29T08:06:19;17.30;;;7.20;;
34242;SDS011;20504;43.214;27.920;2022-12-29T08:08:45;11.40;;;5.40;;
34242;SDS011;20504;43.214;27.920;2022-12-29T08:11:10;12.73;;;6.30;;
34242;SDS011;20504;43.214;27.920;2022-12-29T08:13:36;20.37;;;9.73;;
34242;SDS011;20504;43.214;27.920;2022-12-29T08:16:01;21.97;;;9.00;;
34242;SDS011;20504;43.214;27.920;2022-12-29T08:18:27;22.70;;;11.47;;
34242;SDS011;20504;43.214;27.920;2022-12-29T08:20:52;18.57;;;9.87;;
34242;SDS011;20504;43.214;27.920;2022-12-29T08:23:18;15.13;;;8.03;;
34242;SDS011;20504;43.214;27.920;2022-12-29T08:25:43;18.53;;;10.00;;
34242;SDS011;20504;43.214;27.920;2022-12-29T08:28:09;20.33;;;10.80;;
34242;SDS011;20504;43.214;27.920;2022-12-29T08:30:35;26.20;;;12.50;;
34242;SDS011;20504;43.214;27.920;2022-12-29T08:33:01;30.67;;;16.48;;
34242;SDS011;20504;43.214;27.920;2022-12-29T08:35:27;30.73;;;17.92;;
34242;SDS011;20504;43.214;27.920;2022-12-29T08:37:52;26.73;;;15.50;;
34242;SDS011;20504;43.214;27.920;2022-12-29T08:40:18;30.77;;;18.77;;
34242;SDS011;20504;43.214;27.920;2022-12-29T08:42:43;30.57;;;17.30;;
34242;SDS011;20504;43.214;27.920;2022-12-29T08:45:09;26.73;;;16.30;;
34242;SDS011;20504;43.214;27.920;2022-12-29T08:47:35;33.47;;;17.47;;
34242;SDS011;20504;43.214;27.920;2022-12-29T08:50:01;27.20;;;13.80;;
34242;SDS011;20504;43.214;27.920;2022-12-29T08:52:26;21.70;;;12.10;;
34242;SDS011;20504;43.214;27.920;2022-12-29T08:54:52;45.87;;;28.20;;
34242;SDS011;20504;43.214;27.920;2022-12-29T08:57:17;26.93;;;14.60;;
34242;SDS011;20504;43.214;27.920;2022-12-29T08:59:42;16.10;;;10.00;;
34242;SDS011;20504;43.214;27.920;2022-12-29T09:02:11;18.53;;;11.47;;
34242;SDS011;20504;43.214;27.920;2022-12-29T09:04:37;28.95;;;12.35;;
34242;SDS011;20504;43.214;27.920;2022-12-29T09:07:03;19.57;;;9.93;;
34242;SDS011;20504;43.214;27.920;2022-12-29T09:09:28;18.87;;;10.67;;
34242;SDS011;20504;43.214;27.920;2022-12-29T09:11:53;20.43;;;10.97;;
34242;SDS011;20504;43.214;27.920;2022-12-29T09:14:19;22.55;;;10.95;;
34242;SDS011;20504;43.214;27.920;2022-12-29T09:16:46;15.63;;;9.93;;
34242;SDS011;20504;43.214;27.920;2022-12-29T09:19:31;19.63;;;9.30;;
34242;SDS011;20504;43.214;27.920;2022-12-29T09:21:56;18.27;;;10.03;;
34242;SDS011;20504;43.214;27.920;2022-12-29T09:24:22;12.27;;;6.97;;
34242;SDS011;20504;43.214;27.920;2022-12-29T09:26:47;19.63;;;8.17;;
34242;SDS011;20504;43.214;27.920;2022-12-29T09:29:12;12.37;;;7.00;;
34242;SDS011;20504;43.214;27.920;2022-12-29T09:31:38;19.23;;;8.00;;
34242;SDS011;20504;43.214;27.920;2022-12-29T09:34:03;19.83;;;10.40;;
34242;SDS011;20504;43.214;27.920;2022-12-29T09:36:29;20.33;;;10.60;;
34242;SDS011;20504;43.214;27.920;2022-12-29T09:38:54;21.33;;;11.83;;
34242;SDS011;20504;43.214;27.920;2022-12-29T09:41:25;15.87;;;10.73;;
34242;SDS011;20504;43.214;27.920;2022-12-29T09:46:32;23.48;;;10.95;;
34242;SDS011;20504;43.214;27.920;2022-12-29T09:52:18;17.55;;;9.77;;
34242;SDS011;20504;43.214;27.920;2022-12-29T09:57:22;21.50;;;9.32;;
34242;SDS011;20504;43.214;27.920;2022-12-29T09:59:54;12.77;;;8.90;;
34242;SDS011;20504;43.214;27.920;2022-12-29T10:02:31;13.23;;;7.70;;
34242;SDS011;20504;43.214;27.920;2022-12-29T10:08:01;12.82;;;8.80;;
34242;SDS011;20504;43.214;27.920;2022-12-29T10:13:10;17.20;;;9.82;;
34242;SDS011;20504;43.214;27.920;2022-12-29T10:23:56;16.90;;;9.95;;
34242;SDS011;20504;43.214;27.920;2022-12-29T10:26:27;21.35;;;10.98;;
34242;SDS011;20504;43.214;27.920;2022-12-29T10:29:06;19.02;;;10.25;;
34242;SDS011;20504;43.214;27.920;2022-12-29T10:31:43;20.75;;;10.55;;
34242;SDS011;20504;43.214;27.920;2022-12-29T10:34:18;19.73;;;11.93;;
34242;SDS011;20504;43.214;27.920;2022-12-29T10:39:53;18.50;;;10.38;;
34242;SDS011;20504;43.214;27.920;2022-12-29T10:42:27;19.17;;;10.82;;
34242;SDS011;20504;43.214;27.920;2022-12-29T10:44:58;16.95;;;10.45;;
34242;SDS011;20504;43.214;27.920;2022-12-29T10:47:26;24.48;;;10.80;;
34242;SDS011;20504;43.214;27.920;2022-12-29T10:49:58;17.75;;;10.85;;
34242;SDS011;20504;43.214;27.920;2022-12-29T10:52:26;18.40;;;11.93;;
34242;SDS011;20504;43.214;27.920;2022-12-29T10:54:58;22.25;;;11.48;;
34242;SDS011;20504;43.214;27.920;2022-12-29T10:57:34;26.75;;;11.40;;
34242;SDS011;20504;43.214;27.920;2022-12-29T11:00:10;17.10;;;11.63;;
34242;SDS011;20504;43.214;27.920;2022-12-29T11:05:27;13.45;;;9.35;;
34242;SDS011;20504;43.214;27.920;2022-12-29T11:07:58;17.20;;;9.70;;
34242;SDS011;20504;43.214;27.920;2022-12-29T11:10:30;17.27;;;10.52;;
34242;SDS011;20504;43.214;27.920;2022-12-29T11:13:17;15.77;;;8.27;;
34242;SDS011;20504;43.214;27.920;2022-12-29T11:15:50;12.63;;;8.63;;
34242;SDS011;20504;43.214;27.920;2022-12-29T11:18:20;14.32;;;8.80;;
34242;SDS011;20504;43.214;27.920;2022-12-29T11:20:51;18.13;;;10.02;;
34242;SDS011;20504;43.214;27.920;2022-12-29T11:28:46;14.18;;;8.63;;
34242;SDS011;20504;43.214;27.920;2022-12-29T11:31:29;11.40;;;7.80;;
34242;SDS011;20504;43.214;27.920;2022-12-29T11:33:54;16.13;;;8.77;;
34242;SDS011;20504;43.214;27.920;2022-12-29T11:36:21;12.53;;;8.50;;
34242;SDS011;20504;43.214;27.920;2022-12-29T11:38:50;15.18;;;7.07;;
34242;SDS011;20504;43.214;27.920;2022-12-29T11:41:23;12.65;;;7.70;;
34242;SDS011;20504;43.214;27.920;2022-12-29T11:43:51;9.55;;;7.45;;
34242;SDS011;20504;43.214;27.920;2022-12-29T11:46:20;14.07;;;7.18;;
34242;SDS011;20504;43.214;27.920;2022-12-29T11:48:50;14.98;;;7.05;;
34242;SDS011;20504;43.214;27.920;2022-12-29T11:51:23;12.30;;;7.47;;
34242;SDS011;20504;43.214;27.920;2022-12-29T11:53:57;12.57;;;7.65;;
34242;SDS011;20504;43.214;27.920;2022-12-29T11:56:35;11.30;;;7.80;;
34242;SDS011;20504;43.214;27.920;2022-12-29T12:04:49;12.48;;;7.28;;
34242;SDS011;20504;43.214;27.920;2022-12-29T12:07:22;14.65;;;7.28;;
34242;SDS011;20504;43.214;27.920;2022-12-29T12:10:01;13.20;;;7.45;;
34242;SDS011;20504;43.214;27.920;2022-12-29T12:14:56;11.67;;;7.43;;
34242;SDS011;20504;43.214;27.920;2022-12-29T12:23:12;12.50;;;6.80;;
34242;SDS011;20504;43.214;27.920;2022-12-29T12:25:38;15.77;;;7.85;;
34242;SDS011;20504;43.214;27.920;2022-12-29T12:28:11;11.80;;;8.07;;
34242;SDS011;20504;43.214;27.920;2022-12-29T12:30:46;12.82;;;7.55;;
34242;SDS011;20504;43.214;27.920;2022-12-29T12:39:07;13.43;;;8.40;;
34242;SDS011;20504;43.214;27.920;2022-12-29T12:55:06;13.38;;;7.22;;
34242;SDS011;20504;43.214;27.920;2022-12-29T13:00:26;15.47;;;7.30;;
34242;SDS011;20504;43.214;27.920;2022-12-29T13:03:00;13.85;;;8.27;;
34242;SDS011;20504;43.214;27.920;2022-12-29T13:08:28;18.45;;;8.45;;
34242;SDS011;20504;43.214;27.920;2022-12-29T13:13:53;11.32;;;6.85;;
34242;SDS011;20504;43.214;27.920;2022-12-29T13:19:40;16.63;;;9.13;;
34242;SDS011;20504;43.214;27.920;2022-12-29T13:22:11;15.00;;;9.38;;
34242;SDS011;20504;43.214;27.920;2022-12-29T13:30:20;14.05;;;9.05;;
34242;SDS011;20504;43.214;27.920;2022-12-29T13:37:47;18.57;;;8.60;;
34242;SDS011;20504;43.214;27.920;2022-12-29T13:40:18;17.38;;;9.30;;
34242;SDS011;20504;43.214;27.920;2022-12-29T13:42:49;19.30;;;10.43;;
34242;SDS011;20504;43.214;27.920;2022-12-29T13:45:18;16.45;;;11.07;;
34242;SDS011;20504;43.214;27.920;2022-12-29T13:47:49;24.08;;;11.73;;
34242;SDS011;20504;43.214;27.920;2022-12-29T13:50:22;18.02;;;10.30;;
34242;SDS011;20504;43.214;27.920;2022-12-29T14:04:28;24.05;;;11.90;;
34242;SDS011;20504;43.214;27.920;2022-12-29T14:07:05;22.13;;;10.63;;
34242;SDS011;20504;43.214;27.920;2022-12-29T14:09:47;23.67;;;12.40;;
34242;SDS011;20504;43.214;27.920;2022-12-29T14:17:33;28.83;;;14.90;;
34242;SDS011;20504;43.214;27.920;2022-12-29T14:19:59;23.33;;;14.70;;
34242;SDS011;20504;43.214;27.920;2022-12-29T14:22:26;25.83;;;14.65;;
34242;SDS011;20504;43.214;27.920;2022-12-29T14:24:52;38.15;;;17.25;;
34242;SDS011;20504;43.214;27.920;2022-12-29T14:29:44;22.53;;;12.97;;
34242;SDS011;20504;43.214;27.920;2022-12-29T14:34:55;27.55;;;13.07;;
34242;SDS011;20504;43.214;27.920;2022-12-29T14:37:32;30.90;;;13.73;;
34242;SDS011;20504;43.214;27.920;2022-12-29T14:42:53;30.17;;;14.52;;
34242;SDS011;20504;43.214;27.920;2022-12-29T14:48:02;22.65;;;13.38;;
34242;SDS011;20504;43.214;27.920;2022-12-29T14:50:53;28.55;;;13.73;;
34242;SDS011;20504;43.214;27.920;2022-12-29T14:56:15;23.77;;;14.45;;
34242;SDS011;20504;43.214;27.920;2022-12-29T14:58:54;32.75;;;14.82;;
34242;SDS011;20504;43.214;27.920;2022-12-29T15:01:46;36.42;;;18.27;;
34242;SDS011;20504;43.214;27.920;2022-12-29T15:04:31;33.50;;;17.15;;
34242;SDS011;20504;43.214;27.920;2022-12-29T15:07:06;29.25;;;15.25;;
34242;SDS011;20504;43.214;27.920;2022-12-29T15:09:45;27.70;;;15.13;;
34242;SDS011;20504;43.214;27.920;2022-12-29T15:14:57;34.67;;;16.50;;
34242;SDS011;20504;43.214;27.920;2022-12-29T15:17:27;32.70;;;16.40;;
34242;SDS011;20504;43.214;27.920;2022-12-29T15:22:43;35.15;;;17.92;;
34242;SDS011;20504;43.214;27.920;2022-12-29T15:25:16;31.75;;;16.08;;
34242;SDS011;20504;43.214;27.920;2022-12-29T15:27:43;29.52;;;16.00;;
34242;SDS011;20504;43.214;27.920;2022-12-29T15:30:20;31.88;;;16.90;;
34242;SDS011;20504;43.214;27.920;2022-12-29T15:32:51;35.33;;;17.20;;
34242;SDS011;20504;43.214;27.920;2022-12-29T15:35:26;37.25;;;17.00;;
34242;SDS011;20504;43.214;27.920;2022-12-29T15:37:55;34.07;;;19.13;;
34242;SDS011;20504;43.214;27.920;2022-12-29T15:45:52;37.65;;;23.70;;
34242;SDS011;20504;43.214;27.920;2022-12-29T15:48:23;45.33;;;23.98;;
34242;SDS011;20504;43.214;27.920;2022-12-29T15:51:25;47.28;;;24.02;;
34242;SDS011;20504;43.214;27.920;2022-12-29T15:53:55;52.72;;;25.20;;
34242;SDS011;20504;43.214;27.920;2022-12-29T15:56:22;51.08;;;25.02;;
34242;SDS011;20504;43.214;27.920;2022-12-29T15:58:48;50.13;;;26.50;;
34242;SDS011;20504;43.214;27.920;2022-12-29T16:01:20;49.13;;;26.55;;
34242;SDS011;20504;43.214;27.920;2022-12-29T16:03:54;55.10;;;27.17;;
34242;SDS011;20504;43.214;27.920;2022-12-29T16:06:31;64.25;;;32.75;;
34242;SDS011;20504;43.214;27.920;2022-12-29T16:14:06;61.97;;;32.35;;
34242;SDS011;20504;43.214;27.920;2022-12-29T16:16:36;59.22;;;32.67;;
34242;SDS011;20504;43.214;27.920;2022-12-29T16:19:22;65.55;;;36.22;;
34242;SDS011;20504;43.214;27.920;2022-12-29T16:21:52;73.85;;;34.70;;
34242;SDS011;20504;43.214;27.920;2022-12-29T16:24:18;68.73;;;35.43;;
34242;SDS011;20504;43.214;27.920;2022-12-29T16:26:51;69.20;;;36.90;;
34242;SDS011;20504;43.214;27.920;2022-12-29T16:29:22;83.60;;;38.65;;
34242;SDS011;20504;43.214;27.920;2022-12-29T16:36:57;146.43;;;78.47;;
34242;SDS011;20504;43.214;27.920;2022-12-29T16:39:33;92.18;;;43.65;;
34242;SDS011;20504;43.214;27.920;2022-12-29T16:42:01;99.47;;;42.92;;
34242;SDS011;20504;43.214;27.920;2022-12-29T16:44:46;93.90;;;40.60;;
34242;SDS011;20504;43.214;27.920;2022-12-29T16:49:42;77.50;;;36.00;;
34242;SDS011;20504;43.214;27.920;2022-12-29T16:52:16;74.80;;;38.33;;
34242;SDS011;20504;43.214;27.920;2022-12-29T16:54:53;110.22;;;64.97;;
34242;SDS011;20504;43.214;27.920;2022-12-29T16:57:31;82.10;;;40.92;;
34242;SDS011;20504;43.214;27.920;2022-12-29T17:00:00;76.93;;;37.25;;
34242;SDS011;20504;43.214;27.920;2022-12-29T17:02:30;76.10;;;36.92;;
34242;SDS011;20504;43.214;27.920;2022-12-29T17:04:57;78.57;;;36.83;;
34242;SDS011;20504;43.214;27.920;2022-12-29T17:07:26;74.93;;;41.23;;
34242;SDS011;20504;43.214;27.920;2022-12-29T17:09:53;88.05;;;40.38;;
34242;SDS011;20504;43.214;27.920;2022-12-29T17:12:23;71.28;;;37.97;;
34242;SDS011;20504;43.214;27.920;2022-12-29T17:14:55;81.20;;;40.97;;
34242;SDS011;20504;43.214;27.920;2022-12-29T17:17:32;74.88;;;39.78;;
34242;SDS011;20504;43.214;27.920;2022-12-29T17:20:15;69.13;;;36.72;;
34242;SDS011;20504;43.214;27.920;2022-12-29T17:22:42;92.47;;;50.97;;
34242;SDS011;20504;43.214;27.920;2022-12-29T17:25:11;72.23;;;34.93;;
34242;SDS011;20504;43.214;27.920;2022-12-29T17:27:46;69.60;;;36.47;;
34242;SDS011;20504;43.214;27.920;2022-12-29T17:30:15;86.25;;;45.90;;
34242;SDS011;20504;43.214;27.920;2022-12-29T17:32:45;81.97;;;41.92;;
34242;SDS011;20504;43.214;27.920;2022-12-29T17:35:22;107.72;;;63.90;;
34242;SDS011;20504;43.214;27.920;2022-12-29T17:37:48;77.33;;;44.50;;
34242;SDS011;20504;43.214;27.920;2022-12-29T17:40:15;76.28;;;44.88;;
34242;SDS011;20504;43.214;27.920;2022-12-29T17:42:43;88.78;;;43.75;;